createdAt,value
2023-03-03T00:01:27.833Z,18.70
2023-03-03T00:04:00.826Z,20.00
2023-03-03T00:06:34.207Z,17.50
2023-03-03T00:09:07.271Z,17.30
2023-03-03T00:11:43.307Z,18.30
2023-03-03T00:14:23.617Z,17.00
2023-03-03T00:16:56.550Z,16.40
2023-03-03T00:19:31.384Z,17.60
2023-03-03T00:22:05.196Z,16.70
2023-03-03T00:24:40.130Z,17.20
2023-03-03T00:27:21.439Z,19.60
2023-03-03T00:32:28.883Z,17.50
2023-03-03T00:35:21.294Z,17.80
2023-03-03T00:37:56.073Z,15.30
2023-03-03T00:40:32.692Z,17.10
2023-03-03T00:43:13.924Z,18.20
2023-03-03T00:45:47.674Z,16.00
2023-03-03T00:48:24.403Z,19.70
2023-03-03T00:50:58.255Z,16.60
2023-03-03T00:53:31.498Z,17.50
2023-03-03T00:56:04.495Z,18.30
2023-03-03T00:58:38.473Z,15.70
2023-03-03T01:01:11.241Z,16.90
2023-03-03T01:03:56.347Z,18.40
2023-03-03T01:06:29.908Z,16.30
2023-03-03T01:09:03.149Z,14.80
2023-03-03T01:11:36.453Z,15.40
2023-03-03T01:14:09.216Z,15.80
2023-03-03T01:16:45.008Z,16.00
2023-03-03T01:19:18.893Z,15.60
2023-03-03T01:21:52.602Z,14.30
2023-03-03T01:24:25.472Z,14.10
2023-03-03T01:26:58.371Z,15.50
2023-03-03T01:29:32.759Z,13.20
2023-03-03T01:32:06.095Z,16.10
2023-03-03T01:34:38.949Z,15.40
2023-03-03T01:37:12.113Z,15.10
2023-03-03T01:39:45.028Z,14.70
2023-03-03T01:42:18.090Z,14.10
2023-03-03T01:44:50.925Z,14.00
2023-03-03T01:47:23.604Z,16.60
2023-03-03T01:49:59.711Z,12.60
2023-03-03T01:52:34.784Z,14.80
2023-03-03T01:55:10.307Z,14.50
2023-03-03T01:57:45.118Z,15.60
2023-03-03T02:00:19.300Z,14.90
2023-03-03T02:02:52.405Z,14.80
2023-03-03T02:05:25.256Z,16.90
2023-03-03T02:07:58.035Z,16.50
2023-03-03T02:10:32.829Z,17.00
2023-03-03T02:13:06.072Z,16.10
2023-03-03T02:15:39.701Z,16.60
2023-03-03T02:18:16.381Z,16.80
2023-03-03T02:20:55.475Z,19.70
2023-03-03T02:23:34.845Z,21.80
2023-03-03T02:26:13.030Z,19.30
2023-03-03T02:28:47.873Z,20.70
2023-03-03T02:31:22.743Z,18.80
2023-03-03T02:33:57.697Z,18.60
2023-03-03T02:36:31.961Z,19.40
2023-03-03T02:39:07.127Z,19.80
2023-03-03T02:41:42.452Z,20.40
2023-03-03T02:44:16.375Z,19.90
2023-03-03T02:46:50.607Z,19.20
2023-03-03T02:49:25.344Z,19.00
2023-03-03T02:51:58.203Z,17.40
2023-03-03T02:54:31.638Z,18.70
2023-03-03T02:57:05.892Z,18.00
2023-03-03T02:59:39.401Z,16.70
2023-03-03T03:02:19.561Z,18.30
2023-03-03T03:04:53.557Z,17.10
2023-03-03T03:07:34.808Z,19.60
2023-03-03T03:10:11.699Z,16.20
2023-03-03T03:12:45.627Z,18.40
2023-03-03T03:15:19.289Z,16.30
2023-03-03T03:17:53.146Z,16.30
2023-03-03T03:20:28.328Z,20.00
2023-03-03T03:23:01.338Z,18.30
2023-03-03T03:25:34.790Z,16.60
2023-03-03T03:28:08.045Z,17.90
2023-03-03T03:30:45.924Z,16.40
2023-03-03T03:33:19.530Z,16.20
2023-03-03T03:35:52.596Z,17.10
2023-03-03T03:38:26.244Z,17.70
2023-03-03T03:40:59.601Z,15.60
2023-03-03T03:43:32.951Z,17.00
2023-03-03T03:46:07.043Z,16.60
2023-03-03T03:48:40.207Z,15.10
2023-03-03T03:51:14.958Z,13.90
2023-03-03T03:53:49.372Z,15.20
2023-03-03T03:56:22.609Z,16.30
2023-03-03T03:58:57.513Z,18.70
2023-03-03T04:01:30.872Z,16.90
2023-03-03T04:04:05.296Z,18.60
2023-03-03T04:06:38.532Z,17.30
2023-03-03T04:09:13.786Z,17.10
2023-03-03T04:11:47.545Z,18.90
2023-03-03T04:14:22.500Z,15.60
2023-03-03T04:16:55.768Z,16.10
2023-03-03T04:19:29.160Z,15.50
2023-03-03T04:22:03.177Z,16.10
2023-03-03T04:24:39.729Z,14.30
2023-03-03T04:27:16.496Z,15.00
2023-03-03T04:29:52.210Z,14.40
2023-03-03T04:32:25.446Z,15.60
2023-03-03T04:35:08.080Z,12.90
2023-03-03T04:37:49.466Z,14.90
2023-03-03T04:40:23.150Z,13.20
2023-03-03T04:42:58.425Z,16.00
2023-03-03T04:45:32.419Z,14.30
2023-03-03T04:48:05.268Z,13.60
2023-03-03T04:50:40.588Z,15.20
2023-03-03T04:53:13.703Z,16.40
2023-03-03T04:55:47.112Z,17.20
2023-03-03T04:58:20.989Z,17.10
2023-03-03T05:00:58.380Z,16.50
2023-03-03T05:03:32.561Z,14.80
2023-03-03T05:06:06.134Z,16.40
2023-03-03T05:08:39.418Z,15.40
2023-03-03T05:11:12.645Z,16.90
2023-03-03T05:13:46.385Z,15.50
2023-03-03T05:16:19.150Z,14.40
2023-03-03T05:18:52.136Z,15.10
2023-03-03T05:21:25.190Z,13.30
2023-03-03T05:23:58.213Z,17.10
2023-03-03T05:26:34.606Z,14.60
2023-03-03T05:29:07.362Z,13.30
2023-03-03T05:31:40.125Z,14.70
2023-03-03T05:34:12.960Z,15.50
2023-03-03T05:36:46.635Z,14.70
2023-03-03T05:39:20.007Z,14.30
2023-03-03T05:41:53.017Z,16.00
2023-03-03T05:44:25.692Z,15.80
2023-03-03T05:46:59.458Z,15.20
2023-03-03T05:49:36.556Z,14.20
2023-03-03T05:52:09.887Z,15.30
2023-03-03T05:54:42.988Z,13.80
2023-03-03T05:57:17.166Z,14.60
2023-03-03T05:59:53.553Z,14.90
2023-03-03T06:02:27.340Z,14.90
2023-03-03T06:05:00.193Z,14.90
2023-03-03T06:07:32.998Z,15.40
2023-03-03T06:10:06.786Z,14.40
2023-03-03T06:12:47.595Z,15.40
2023-03-03T06:15:22.029Z,12.30
2023-03-03T06:18:00.316Z,13.60
2023-03-03T06:20:34.230Z,14.70
2023-03-03T06:23:07.149Z,13.20
2023-03-03T06:25:42.354Z,17.90
2023-03-03T06:28:15.307Z,17.00
2023-03-03T06:30:49.740Z,18.30
2023-03-03T06:33:24.750Z,18.30
2023-03-03T06:35:57.575Z,15.80
2023-03-03T06:38:31.181Z,14.80
2023-03-03T06:41:07.561Z,14.90
2023-03-03T06:43:44.735Z,14.10
2023-03-03T06:46:17.574Z,13.60
2023-03-03T06:48:50.502Z,12.00
2023-03-03T06:51:28.461Z,11.50
2023-03-03T06:54:08.720Z,10.40
2023-03-03T06:56:42.209Z,11.40
2023-03-03T06:59:19.433Z,12.20
2023-03-03T07:01:52.782Z,10.80
2023-03-03T07:04:31.126Z,11.50
2023-03-03T07:07:09.127Z,14.50
2023-03-03T07:09:41.896Z,11.70
2023-03-03T07:12:17.257Z,11.10
2023-03-03T07:14:55.954Z,13.40
2023-03-03T07:17:29.245Z,14.90
2023-03-03T07:20:01.954Z,13.70
2023-03-03T07:22:35.274Z,13.40
2023-03-03T07:25:19.793Z,12.30
2023-03-03T07:27:52.667Z,15.20
2023-03-03T07:30:28.392Z,17.40
2023-03-03T07:33:01.867Z,14.90
2023-03-03T07:35:40.173Z,13.20
2023-03-03T07:38:25.420Z,13.40
2023-03-03T07:40:59.680Z,13.20
2023-03-03T07:43:38.397Z,14.20
2023-03-03T07:46:33.280Z,13.10
2023-03-03T07:49:14.280Z,13.90
2023-03-03T07:51:47.974Z,12.60
2023-03-03T07:54:37.681Z,15.20
2023-03-03T07:57:19.733Z,11.80
2023-03-03T07:59:53.656Z,13.50
2023-03-03T08:02:44.787Z,22.20
2023-03-03T08:05:40.450Z,19.70
2023-03-03T08:08:31.403Z,17.20
2023-03-03T08:11:04.383Z,16.20
2023-03-03T08:13:42.437Z,13.70
2023-03-03T08:16:38.672Z,14.20
2023-03-03T08:19:13.674Z,14.50
2023-03-03T08:21:47.097Z,16.20
2023-03-03T08:24:21.818Z,14.90
2023-03-03T08:26:54.977Z,15.00
2023-03-03T08:29:27.902Z,16.00
2023-03-03T08:32:02.397Z,15.00
2023-03-03T08:34:35.715Z,15.30
2023-03-03T08:37:08.932Z,15.50
2023-03-03T08:39:42.105Z,17.40
2023-03-03T08:42:16.337Z,15.10
2023-03-03T08:44:49.962Z,12.90
2023-03-03T08:47:23.444Z,14.60
2023-03-03T08:49:56.675Z,15.20
2023-03-03T08:52:29.548Z,12.60
2023-03-03T08:55:08.787Z,14.50
2023-03-03T08:57:44.720Z,13.30
2023-03-03T09:00:19.203Z,13.60
2023-03-03T09:02:52.394Z,14.50
2023-03-03T09:05:25.738Z,14.10
2023-03-03T09:08:00.816Z,15.80
2023-03-03T09:10:34.894Z,14.80
2023-03-03T09:13:13.195Z,14.80
2023-03-03T09:15:46.181Z,14.50
2023-03-03T09:18:20.206Z,16.00
2023-03-03T09:20:55.389Z,15.50
2023-03-03T09:23:35.906Z,14.50
2023-03-03T09:26:28.595Z,16.80
2023-03-03T09:29:09.628Z,15.40
2023-03-03T09:31:44.022Z,17.40
2023-03-03T09:34:23.765Z,15.70
2023-03-03T09:36:56.796Z,15.30
2023-03-03T09:39:30.664Z,12.90
2023-03-03T09:42:26.294Z,13.80
2023-03-03T09:45:24.480Z,13.20
2023-03-03T09:48:04.162Z,13.00
2023-03-03T09:50:42.517Z,12.00
2023-03-03T09:53:21.932Z,10.30
2023-03-03T09:55:58.475Z,11.60
2023-03-03T09:58:46.165Z,13.00
2023-03-03T10:01:48.205Z,12.30
2023-03-03T10:04:30.227Z,10.80
2023-03-03T10:07:08.792Z,11.60
2023-03-03T10:09:53.461Z,12.10
2023-03-03T10:12:31.414Z,11.80
2023-03-03T10:15:14.739Z,10.50
2023-03-03T10:17:54.302Z,10.90
2023-03-03T10:20:49.123Z,10.40
2023-03-03T10:23:30.404Z,10.40
2023-03-03T10:26:09.809Z,9.60
2023-03-03T10:29:30.975Z,9.20
2023-03-03T10:32:21.885Z,9.80
2023-03-03T10:35:36.137Z,10.50
2023-03-03T10:38:31.194Z,8.80
2023-03-03T10:41:17.273Z,8.80
2023-03-03T10:44:07.933Z,9.20
2023-03-03T10:46:47.608Z,9.60
2023-03-03T10:49:40.559Z,8.80
2023-03-03T10:52:25.977Z,8.60
2023-03-03T10:55:10.572Z,9.00
2023-03-03T10:57:46.666Z,8.60
2023-03-03T11:00:25.284Z,9.70
2023-03-03T11:03:11.331Z,10.60
2023-03-03T11:05:46.698Z,8.60
2023-03-03T11:08:32.680Z,8.40
2023-03-03T11:11:09.605Z,8.10
2023-03-03T11:13:47.159Z,8.50
2023-03-03T11:16:36.275Z,8.90
2023-03-03T11:19:18.541Z,8.80
2023-03-03T11:21:52.881Z,8.80
2023-03-03T11:24:39.328Z,10.10
2023-03-03T11:27:32.835Z,8.80
2023-03-03T11:30:13.576Z,9.40
2023-03-03T11:32:50.689Z,8.30
2023-03-03T11:35:29.420Z,8.80
2023-03-03T11:38:19.105Z,10.10
2023-03-03T11:40:52.943Z,9.10
2023-03-03T11:43:36.950Z,10.00
2023-03-03T11:46:13.268Z,10.10
2023-03-03T11:48:50.608Z,10.00
2023-03-03T11:51:28.914Z,9.50
2023-03-03T11:54:04.773Z,9.80
2023-03-03T11:56:41.571Z,10.00
2023-03-03T11:59:25.886Z,9.00
2023-03-03T12:01:59.376Z,10.10
2023-03-03T12:04:36.169Z,9.80
2023-03-03T12:07:19.816Z,11.70
2023-03-03T12:09:58.842Z,9.40
2023-03-03T12:12:53.361Z,10.10
2023-03-03T12:15:30.804Z,10.40
2023-03-03T12:18:27.291Z,9.90
2023-03-03T12:21:08.986Z,12.90
2023-03-03T12:24:04.456Z,11.00
2023-03-03T12:26:41.836Z,11.80
2023-03-03T12:29:20.759Z,12.00
2023-03-03T12:31:55.070Z,11.90
2023-03-03T12:34:31.186Z,12.40
2023-03-03T12:37:32.314Z,12.10
2023-03-03T12:40:11.289Z,13.00
2023-03-03T12:42:58.918Z,11.20
2023-03-03T12:45:57.264Z,14.00
2023-03-03T12:48:32.914Z,12.70
2023-03-03T12:51:08.133Z,15.00
2023-03-03T12:53:50.814Z,14.30
2023-03-03T12:56:27.858Z,13.80
2023-03-03T12:59:05.553Z,14.10
2023-03-03T13:01:57.763Z,13.30
2023-03-03T13:07:17.483Z,12.20
2023-03-03T13:10:04.327Z,14.60
2023-03-03T13:12:42.044Z,14.90
2023-03-03T13:15:31.671Z,14.70
2023-03-03T13:18:22.019Z,13.80
2023-03-03T13:20:57.426Z,12.30
2023-03-03T13:23:38.528Z,11.50
2023-03-03T13:26:16.084Z,14.40
2023-03-03T13:28:57.854Z,13.50
2023-03-03T13:31:33.745Z,12.60
2023-03-03T13:34:06.638Z,12.70
2023-03-03T13:36:42.976Z,13.40
2023-03-03T13:39:20.643Z,14.30
2023-03-03T13:41:57.252Z,13.10
2023-03-03T13:44:33.482Z,14.60
2023-03-03T13:47:13.747Z,13.70
2023-03-03T13:50:02.599Z,12.40
2023-03-03T13:52:38.759Z,13.10
2023-03-03T13:55:21.703Z,12.70
2023-03-03T13:58:04.800Z,14.80
2023-03-03T14:00:44.801Z,14.00
2023-03-03T14:03:47.652Z,14.20
2023-03-03T14:06:21.049Z,13.90
2023-03-03T14:09:38.439Z,13.20
2023-03-03T14:12:18.646Z,15.20
2023-03-03T14:14:56.425Z,14.30
2023-03-03T14:17:39.656Z,11.70
2023-03-03T14:20:24.551Z,12.70
2023-03-03T14:23:01.513Z,11.10
2023-03-03T14:25:54.557Z,12.70
2023-03-03T14:28:28.579Z,12.50
2023-03-03T14:31:03.199Z,12.70
2023-03-03T14:33:41.703Z,11.90
2023-03-03T14:36:16.458Z,11.20
2023-03-03T14:38:52.912Z,12.40
2023-03-03T14:41:37.852Z,12.70
2023-03-03T14:44:34.714Z,12.00
2023-03-03T14:47:22.022Z,13.60
2023-03-03T14:50:00.338Z,12.40
2023-03-03T14:52:36.058Z,11.90
2023-03-03T14:55:31.878Z,13.10
2023-03-03T14:58:05.175Z,11.90
2023-03-03T15:00:38.972Z,13.00
2023-03-03T15:03:24.961Z,11.90
2023-03-03T15:05:58.620Z,12.90
2023-03-03T15:08:36.994Z,13.20
2023-03-03T15:11:27.688Z,13.60
2023-03-03T15:14:13.740Z,14.90
2023-03-03T15:16:46.904Z,13.80
2023-03-03T15:19:46.579Z,15.70
2023-03-03T15:22:23.700Z,16.20
2023-03-03T15:25:00.373Z,15.00
2023-03-03T15:27:36.760Z,15.90
2023-03-03T15:30:20.317Z,15.80
2023-03-03T15:32:56.887Z,15.60
2023-03-03T15:35:37.750Z,17.30
2023-03-03T15:38:17.646Z,15.00
2023-03-03T15:40:52.486Z,20.70
2023-03-03T15:44:20.111Z,19.90
2023-03-03T15:47:08.990Z,19.30
2023-03-03T15:50:05.308Z,18.80
2023-03-03T15:52:45.191Z,18.30
2023-03-03T15:55:26.180Z,18.90
2023-03-03T15:58:07.253Z,15.80
2023-03-03T16:00:48.022Z,17.20
2023-03-03T16:03:28.105Z,17.00
2023-03-03T16:06:03.446Z,24.30
2023-03-03T16:08:46.257Z,31.10
2023-03-03T16:11:23.595Z,22.20
2023-03-03T16:14:12.423Z,22.70
2023-03-03T16:16:50.865Z,20.20
2023-03-03T16:19:33.648Z,27.70
2023-03-03T16:22:29.254Z,19.80
2023-03-03T16:25:08.529Z,18.60
2023-03-03T16:27:43.522Z,19.60
2023-03-03T16:30:27.192Z,20.40
2023-03-03T16:33:09.707Z,21.90
2023-03-03T16:35:46.420Z,21.00
2023-03-03T16:38:21.553Z,21.90
2023-03-03T16:40:57.146Z,20.30
2023-03-03T16:43:38.865Z,21.40
2023-03-03T16:46:19.698Z,20.50
2023-03-03T16:48:59.238Z,18.20
2023-03-03T16:51:39.467Z,20.00
2023-03-03T16:54:15.906Z,19.70
2023-03-03T16:56:50.093Z,16.00
2023-03-03T16:59:44.073Z,17.70
2023-03-03T17:02:37.857Z,17.60
2023-03-03T17:05:17.360Z,16.00
2023-03-03T17:08:13.924Z,15.60
2023-03-03T17:10:52.578Z,12.40
2023-03-03T17:13:42.337Z,12.40
2023-03-03T17:16:19.240Z,12.30
2023-03-03T17:18:58.064Z,15.70
2023-03-03T17:21:40.944Z,19.60
2023-03-03T17:24:17.594Z,16.10
2023-03-03T17:26:57.978Z,18.70
2023-03-03T17:29:38.489Z,16.60
2023-03-03T17:32:20.632Z,16.90
2023-03-03T17:35:01.358Z,19.00
2023-03-03T17:37:42.281Z,19.80
2023-03-03T17:40:24.958Z,18.90
2023-03-03T17:43:01.174Z,19.80
2023-03-03T17:45:35.787Z,20.50
2023-03-03T17:48:19.602Z,21.80
2023-03-03T17:51:01.169Z,26.20
2023-03-03T17:53:44.543Z,25.50
2023-03-03T17:56:21.892Z,23.10
2023-03-03T17:59:02.667Z,24.80
2023-03-03T18:01:45.595Z,23.80
2023-03-03T18:04:27.845Z,22.20
2023-03-03T18:07:19.675Z,19.00
2023-03-03T18:10:16.588Z,19.40
2023-03-03T18:12:54.932Z,20.30
2023-03-03T18:15:34.815Z,19.70
2023-03-03T18:18:11.359Z,20.70
2023-03-03T18:21:03.042Z,21.90
2023-03-03T18:23:43.331Z,22.10
2023-03-03T18:26:40.727Z,27.10
2023-03-03T18:29:21.837Z,27.80
2023-03-03T18:34:41.365Z,24.70
2023-03-03T18:37:34.041Z,22.00
2023-03-03T18:40:28.631Z,20.70
2023-03-03T18:43:02.338Z,18.70
2023-03-03T18:45:57.637Z,20.30
2023-03-03T18:48:50.896Z,20.50
2023-03-03T18:51:53.460Z,22.70
2023-03-03T18:54:31.431Z,17.70
2023-03-03T18:57:18.990Z,16.70
2023-03-03T19:00:02.873Z,20.10
2023-03-03T19:02:46.635Z,18.80
2023-03-03T19:05:24.982Z,20.90
2023-03-03T19:08:00.916Z,20.20
2023-03-03T19:10:57.413Z,21.40
2023-03-03T19:13:56.053Z,23.00
2023-03-03T19:16:41.767Z,21.60
2023-03-03T19:19:18.481Z,24.40
2023-03-03T19:21:54.410Z,23.70
2023-03-03T19:24:34.033Z,22.80
2023-03-03T19:27:27.992Z,20.50
2023-03-03T19:30:23.023Z,18.90
2023-03-03T19:36:33.812Z,22.80
2023-03-03T19:39:17.121Z,22.90
2023-03-03T19:41:56.384Z,22.70
2023-03-03T19:44:36.504Z,22.50
2023-03-03T19:47:29.469Z,24.00
2023-03-03T19:50:07.898Z,21.90
2023-03-03T19:52:43.248Z,21.60
2023-03-03T19:55:25.819Z,20.00
2023-03-03T19:58:03.553Z,21.40
2023-03-03T20:00:39.232Z,21.20
2023-03-03T20:03:31.452Z,22.60
2023-03-03T20:06:11.799Z,19.60
2023-03-03T20:08:50.796Z,21.10
2023-03-03T20:11:46.482Z,21.40
2023-03-03T20:16:58.976Z,21.00
2023-03-03T20:19:41.022Z,20.60
2023-03-03T20:22:14.961Z,23.00
2023-03-03T20:25:02.662Z,22.60
2023-03-03T20:27:41.297Z,26.20
2023-03-03T20:30:29.127Z,22.60
2023-03-03T20:33:16.920Z,23.60
2023-03-03T20:35:54.928Z,23.20
2023-03-03T20:38:33.767Z,23.90
2023-03-03T20:41:12.743Z,23.00
2023-03-03T20:43:56.833Z,26.20
2023-03-03T20:46:34.477Z,24.60
2023-03-03T20:49:15.500Z,24.30
2023-03-03T20:51:52.156Z,22.70
2023-03-03T20:54:28.365Z,22.30
2023-03-03T20:57:05.869Z,23.40
2023-03-03T20:59:41.802Z,22.50
2023-03-03T21:02:19.488Z,22.50
2023-03-03T21:05:07.992Z,23.90
2023-03-03T21:07:41.545Z,20.00
2023-03-03T21:10:17.455Z,20.90
2023-03-03T21:12:50.272Z,23.50
2023-03-03T21:15:29.569Z,23.00
2023-03-03T21:18:02.281Z,23.30
2023-03-03T21:20:36.423Z,20.80
2023-03-03T21:23:12.186Z,21.70
2023-03-03T21:26:01.548Z,21.80
2023-03-03T21:28:35.913Z,25.40
2023-03-03T21:31:14.533Z,22.40
2023-03-03T21:33:50.677Z,21.10
2023-03-03T21:36:24.989Z,21.80
2023-03-03T21:38:58.732Z,18.90
2023-03-03T21:41:34.323Z,21.20
2023-03-03T21:44:15.205Z,19.60
2023-03-03T21:46:47.873Z,19.90
2023-03-03T21:49:43.373Z,19.20
2023-03-03T21:52:18.636Z,20.30
2023-03-03T21:54:53.343Z,19.30
2023-03-03T21:57:31.312Z,19.40
2023-03-03T22:00:05.949Z,19.10
2023-03-03T22:02:41.365Z,19.90
2023-03-03T22:05:14.883Z,21.50
2023-03-03T22:07:47.919Z,20.20
2023-03-03T22:10:20.863Z,19.20
2023-03-03T22:12:53.957Z,19.30
2023-03-03T22:15:33.560Z,20.10
2023-03-03T22:18:07.126Z,21.90
2023-03-03T22:20:39.878Z,19.70
2023-03-03T22:23:12.797Z,20.40
2023-03-03T22:25:46.164Z,21.10
2023-03-03T22:28:23.885Z,22.20
2023-03-03T22:30:57.592Z,22.60
2023-03-03T22:33:35.352Z,22.40
2023-03-03T22:36:10.168Z,22.90
2023-03-03T22:38:43.374Z,22.00
2023-03-03T22:41:17.476Z,22.80
2023-03-03T22:43:50.493Z,21.60
2023-03-03T22:46:23.299Z,23.70
2023-03-03T22:48:56.105Z,22.70
2023-03-03T22:51:28.863Z,20.50
2023-03-03T22:54:01.872Z,23.20
2023-03-03T22:56:34.683Z,22.40
2023-03-03T22:59:07.567Z,24.60
2023-03-03T23:01:40.616Z,22.60
2023-03-03T23:04:13.845Z,25.20
2023-03-03T23:06:47.064Z,23.30
2023-03-03T23:09:24.994Z,22.60
2023-03-03T23:12:03.389Z,20.80
2023-03-03T23:14:36.950Z,19.20
2023-03-03T23:17:13.100Z,18.90
2023-03-03T23:19:49.617Z,19.40
2023-03-03T23:22:23.089Z,20.10
2023-03-03T23:24:56.294Z,18.50
2023-03-03T23:27:29.245Z,18.60
2023-03-03T23:30:02.190Z,17.00
2023-03-03T23:32:35.627Z,17.70
2023-03-03T23:35:09.450Z,17.80
2023-03-03T23:37:42.580Z,18.00
2023-03-03T23:40:16.634Z,16.30
2023-03-03T23:42:49.944Z,16.30
2023-03-03T23:45:22.671Z,17.60
2023-03-03T23:47:56.747Z,18.20
2023-03-03T23:50:30.139Z,16.50
2023-03-03T23:53:02.992Z,16.30
2023-03-03T23:55:37.952Z,17.00
2023-03-03T23:58:11.844Z,17.10
